Time;durP1;ratioP1;P1;durP2;ratioP2;P2;SDS_P1;SDS_P2;PMS_P1;PMS_P2;Temp;Humidity;BMP_temperature;BMP_pressure;BME280_temperature;BME280_humidity;BME280_pressure;Samples;Min_cycle;Max_cycle;Signal;HPM_P1;HPM_P2
2021/04/01 12:58:56;;;;;;;16.13;3.00;;;19.20;45.10;;;;;;10490398;27;20135;-47
2021/04/01 13:05:29;;;;;;;29.88;4.50;;;21.30;40.90;;;;;;10421614;27;20569;-72
2021/04/01 13:10:40;;;;;;;24.48;4.35;;;20.40;38.70;;;;;;10467007;28;20602;-71
2021/04/01 13:15:41;;;;;;;32.03;4.68;;;17.70;43.80;;;;;;10411809;28;20090;-72
2021/04/01 13:20:44;;;;;;;31.47;4.93;;;16.70;46.50;;;;;;10436664;28;20164;-70
2021/04/01 13:25:45;;;;;;;35.80;4.82;;;16.00;47.80;;;;;;10439018;28;20049;-69
2021/04/01 13:30:50;;;;;;;26.33;4.07;;;15.80;49.30;;;;;;10437819;28;20467;-71
2021/04/01 13:35:57;;;;;;;35.00;3.85;;;15.40;50.20;;;;;;10446206;28;20072;-71
2021/04/01 13:41:00;;;;;;;26.58;4.38;;;15.20;51.20;;;;;;10433920;28;20416;-68
2021/04/01 13:46:02;;;;;;;37.70;6.13;;;15.20;50.70;;;;;;10434176;28;20053;-75
2021/04/01 13:51:08;;;;;;;34.13;5.78;;;14.70;51.70;;;;;;10435573;28;20393;-69
2021/04/01 13:56:17;;;;;;;29.80;4.03;;;14.30;53.10;;;;;;10434038;28;20132;-69
2021/04/01 14:12:03;;;;;;;25.40;3.85;;;14.00;54.30;;;;;;10431116;28;20444;-71
2021/04/01 14:17:05;;;;;;;34.67;5.35;;;14.20;54.10;;;;;;10405006;28;20358;-71
2021/04/01 14:22:08;;;;;;;27.00;4.47;;;14.00;53.70;;;;;;10406592;28;20136;-70
2021/04/01 14:27:13;;;;;;;23.77;4.22;;;13.50;54.90;;;;;;10408721;28;20103;-71
2021/04/01 14:32:15;;;;;;;33.78;4.57;;;13.10;56.10;;;;;;10408826;28;20049;-70
2021/04/01 14:37:21;;;;;;;29.92;4.15;;;12.90;56.90;;;;;;10406220;28;20604;-70
2021/04/01 14:42:29;;;;;;;35.28;3.80;;;12.80;57.80;;;;;;10405218;28;20064;-69
2021/04/01 14:47:31;;;;;;;21.20;3.47;;;12.70;58.10;;;;;;10405488;28;20056;-70
2021/04/01 14:52:35;;;;;;;36.63;3.88;;;12.60;58.40;;;;;;10407297;28;20049;-70
2021/04/01 14:57:40;;;;;;;24.88;4.10;;;12.60;58.80;;;;;;10405878;28;20140;-69
2021/04/01 15:02:43;;;;;;;42.15;6.13;;;12.30;59.30;;;;;;10406120;28;20509;-70
2021/04/01 15:07:47;;;;;;;22.15;3.60;;;12.10;59.80;;;;;;10405564;28;20556;-71
2021/04/01 15:12:49;;;;;;;38.63;3.67;;;11.90;61.00;;;;;;10407099;28;20045;-70
2021/04/01 15:17:53;;;;;;;27.40;3.72;;;11.80;61.20;;;;;;10401749;28;20065;-70
2021/04/01 15:22:55;;;;;;;25.30;4.63;;;11.70;61.60;;;;;;10402892;28;20054;-70
2021/04/01 15:27:58;;;;;;;27.27;3.30;;;11.70;61.60;;;;;;10400674;28;20063;-69
2021/04/01 15:33:00;;;;;;;29.42;3.80;;;11.60;62.40;;;;;;10402309;28;20500;-69
2021/04/01 15:38:03;;;;;;;30.93;6.53;;;11.30;63.70;;;;;;10401704;28;20079;-70
2021/04/01 15:43:08;;;;;;;23.38;3.45;;;11.10;64.10;;;;;;10403995;28;20497;-71
2021/04/01 15:48:11;;;;;;;33.95;4.85;;;11.10;64.90;;;;;;10403082;28;20053;-71
2021/04/01 15:53:15;;;;;;;30.67;3.85;;;11.00;65.40;;;;;;10403747;28;20500;-71
2021/04/01 15:58:17;;;;;;;27.10;3.25;;;10.80;66.50;;;;;;10405962;28;20053;-72
2021/04/01 16:03:18;;;;;;;29.20;3.55;;;10.70;66.70;;;;;;10404319;28;20111;-71
2021/04/01 16:08:20;;;;;;;37.75;5.10;;;10.50;67.40;;;;;;10402238;28;20041;-72
2021/04/01 16:13:22;;;;;;;25.70;4.33;;;10.30;68.10;;;;;;10404832;28;20057;-71
2021/04/01 16:18:23;;;;;;;29.40;4.05;;;10.20;69.00;;;;;;10403317;28;20045;-74
2021/04/01 16:23:26;;;;;;;38.20;5.00;;;10.10;69.80;;;;;;10403004;28;20046;-72
2021/04/01 16:28:28;;;;;;;23.95;3.72;;;9.90;70.40;;;;;;10403679;28;20075;-72
2021/04/01 16:33:31;;;;;;;28.60;3.65;;;9.80;71.20;;;;;;10403930;28;20117;-75
2021/04/01 16:38:36;;;;;;;30.75;4.60;;;9.60;72.30;;;;;;10406151;28;20064;-75
2021/04/01 16:43:42;;;;;;;27.63;4.13;;;9.50;73.10;;;;;;10406185;28;20096;-74
2021/04/01 16:48:44;;;;;;;29.83;4.78;;;9.30;73.70;;;;;;10405207;28;20493;-72
2021/04/01 16:53:51;;;;;;;26.02;3.65;;;9.10;74.70;;;;;;10389584;28;20057;-74
2021/04/01 16:58:55;;;;;;;24.40;3.65;;;9.00;75.60;;;;;;10404603;28;20045;-73
2021/04/01 17:03:56;;;;;;;30.80;4.15;;;8.80;76.00;;;;;;10362099;28;20058;-74
2021/04/01 17:08:58;;;;;;;27.60;4.10;;;8.70;77.30;;;;;;10362573;28;20100;-70
2021/04/01 17:14:00;;;;;;;24.07;3.53;;;8.60;78.30;;;;;;10361922;28;20054;-70
2021/04/01 17:19:03;;;;;;;34.47;4.40;;;8.40;79.20;;;;;;10360144;28;20085;-69
2021/04/01 17:24:06;;;;;;;29.67;4.78;;;8.30;80.00;;;;;;10359166;28;20512;-70
2021/04/01 17:29:08;;;;;;;25.17;3.85;;;8.20;81.10;;;;;;10361821;28;20512;-73
